Time;durP1;ratioP1;P1;durP2;ratioP2;P2;SDS_P1;SDS_P2;PMS_P1;PMS_P2;Temp;Humidity;BMP_temperature;BMP_pressure;BME280_temperature;BME280_humidity;BME280_pressure;Samples;Min_cycle;Max_cycle;Signal;HPM_P1;HPM_P2
2021/12/29 00:00:14;;;;;;;5.70;1.67;;;;;;;10.50;88.88;96790.31;4843663;29;21190;-87
2021/12/29 00:02:43;;;;;;;9.83;1.67;;;;;;;10.50;87.88;96794.69;4844700;29;20769;-87
2021/12/29 00:05:11;;;;;;;5.80;1.57;;;;;;;10.47;88.67;96792.38;4859119;29;21192;-86
2021/12/29 00:07:41;;;;;;;4.87;1.83;;;;;;;10.49;89.18;96798.25;4856216;29;20637;-86
2021/12/29 00:10:11;;;;;;;6.60;1.43;;;;;;;10.47;88.99;96808.81;4857550;29;20772;-87
2021/12/29 00:12:42;;;;;;;4.47;1.70;;;;;;;10.47;88.13;96806.22;4853181;29;20644;-87
2021/12/29 00:15:11;;;;;;;9.00;1.50;;;;;;;10.50;88.53;96810.34;4852033;29;20735;-87
2021/12/29 00:17:42;;;;;;;5.57;1.80;;;;;;;10.46;89.04;96811.56;4857437;29;21213;-86
2021/12/29 00:20:11;;;;;;;4.43;1.40;;;;;;;10.45;89.58;96818.56;4835523;29;20718;-87
2021/12/29 00:22:41;;;;;;;4.40;1.33;;;;;;;10.48;88.49;96822.69;4852902;29;20637;-86
2021/12/29 00:25:10;;;;;;;6.00;1.60;;;;;;;10.44;89.00;96822.13;4855155;29;20677;-86
2021/12/29 00:27:38;;;;;;;5.83;1.70;;;;;;;10.45;89.55;96833.41;4844984;29;20635;-86
2021/12/29 00:30:09;;;;;;;5.53;1.63;;;;;;;10.47;89.54;96829.66;4852207;29;20662;-87
2021/12/29 00:33:04;;;;;;;6.53;1.60;;;;;;;10.47;89.15;96841.88;4861626;29;20643;-86
2021/12/29 00:35:51;;;;;;;4.40;1.60;;;;;;;10.46;89.96;96848.06;4854902;29;21202;-87
2021/12/29 00:38:39;;;;;;;5.10;1.27;;;;;;;10.50;89.53;96842.44;4857838;29;20649;-86
2021/12/29 00:41:37;;;;;;;5.00;1.57;;;;;;;10.52;88.08;96850.13;4877591;29;20676;-86
2021/12/29 00:44:23;;;;;;;5.33;1.57;;;;;;;10.50;90.05;96857.25;4845139;29;21358;-86
2021/12/29 00:47:18;;;;;;;6.70;1.53;;;;;;;10.49;89.49;96858.22;4846444;29;20654;-86
2021/12/29 00:49:47;;;;;;;7.00;1.23;;;;;;;10.50;89.79;96867.69;4846468;29;21000;-86
2021/12/29 00:52:15;;;;;;;6.50;1.87;;;;;;;10.48;89.20;96880.84;4848449;29;20674;-87
2021/12/29 00:54:45;;;;;;;6.00;1.90;;;;;;;10.47;89.21;96887.00;4852303;29;21299;-86
2021/12/29 00:57:13;;;;;;;5.37;1.33;;;;;;;10.47;88.58;96880.97;4854621;29;20636;-86
2021/12/29 00:59:41;;;;;;;5.20;2.67;;;;;;;10.50;89.46;96894.56;4842226;29;20720;-86
2021/12/29 01:02:09;;;;;;;4.57;1.40;;;;;;;10.51;89.90;96896.22;4864150;29;21076;-86
2021/12/29 01:04:37;;;;;;;3.60;1.20;;;;;;;10.52;88.68;96902.25;4855888;29;21239;-86
2021/12/29 01:07:06;;;;;;;3.90;1.30;;;;;;;10.53;88.27;96896.09;4853337;29;20675;-86
2021/12/29 01:09:34;;;;;;;3.87;0.93;;;;;;;10.52;89.88;96910.88;4842329;29;20656;-86
2021/12/29 01:12:04;;;;;;;4.50;1.17;;;;;;;10.53;89.65;96915.16;4850535;29;21234;-86
2021/12/29 01:14:32;;;;;;;3.23;1.20;;;;;;;10.53;88.19;96916.94;4844999;29;20633;-86
2021/12/29 01:17:00;;;;;;;6.10;1.73;;;;;;;10.51;88.37;96924.09;4858696;29;20644;-86
2021/12/29 01:19:30;;;;;;;4.00;1.03;;;;;;;10.49;89.00;96925.97;4854525;29;21002;-86
2021/12/29 01:22:00;;;;;;;4.37;1.40;;;;;;;10.54;88.88;96926.41;4843358;29;20630;-86
2021/12/29 01:24:30;;;;;;;4.03;1.27;;;;;;;10.50;90.11;96935.47;4853086;29;20730;-86
2021/12/29 01:26:58;;;;;;;4.80;1.10;;;;;;;10.49;88.87;96937.25;4849376;29;20644;-86
2021/12/29 01:29:30;;;;;;;5.40;1.00;;;;;;;10.51;89.82;96948.34;4845582;29;20721;-86
2021/12/29 01:31:58;;;;;;;5.20;1.40;;;;;;;10.48;89.01;96960.84;4852802;29;21295;-86
2021/12/29 01:34:27;;;;;;;3.10;1.30;;;;;;;10.46;88.63;96957.53;4843012;29;20642;-86
2021/12/29 01:36:55;;;;;;;3.50;1.50;;;;;;;10.41;89.44;96962.31;4847715;29;21020;-86
2021/12/29 01:39:23;;;;;;;4.10;1.30;;;;;;;10.41;90.30;96960.53;4843334;29;20641;-85
2021/12/29 01:41:54;;;;;;;7.37;1.83;;;;;;;10.39;90.22;96966.84;4848177;29;20642;-86
2021/12/29 01:44:24;;;;;;;5.63;1.70;;;;;;;10.38;89.54;96967.78;4848932;29;20772;-85
2021/12/29 01:46:55;;;;;;;5.73;1.57;;;;;;;10.38;90.80;96973.81;4850417;29;20626;-86
2021/12/29 01:49:23;;;;;;;4.07;1.43;;;;;;;10.38;89.40;96988.63;4852639;29;21232;-86
2021/12/29 01:52:02;;;;;;;4.70;1.57;;;;;;;10.40;89.30;96986.72;4840479;29;20662;-86
2021/12/29 01:54:34;;;;;;;6.73;1.80;;;;;;;10.40;90.18;96992.78;4842222;29;20622;-86
2021/12/29 01:57:05;;;;;;;3.00;1.10;;;;;;;10.43;89.77;97009.91;4866448;29;20630;-86
2021/12/29 01:59:34;;;;;;;5.67;1.37;;;;;;;10.42;89.77;97005.66;4856698;29;20627;-86
2021/12/29 02:02:04;;;;;;;6.13;1.50;;;;;;;10.43;90.49;97007.31;4840674;29;20630;-86
2021/12/29 02:04:32;;;;;;;5.87;1.77;;;;;;;10.50;89.69;97024.91;4840343;29;21003;-86
2021/12/29 02:07:04;;;;;;;3.80;1.37;;;;;;;10.44;89.72;97027.22;4855481;29;20670;-86
2021/12/29 02:09:32;;;;;;;3.70;0.90;;;;;;;10.43;89.78;97038.56;4850689;29;20728;-86
2021/12/29 02:12:01;;;;;;;4.73;1.30;;;;;;;10.44;89.29;97035.84;4853073;29;20663;-86
2021/12/29 02:14:29;;;;;;;5.30;1.70;;;;;;;10.47;89.37;97034.78;4836922;29;20633;-86
2021/12/29 02:16:58;;;;;;;4.90;1.60;;;;;;;10.44;88.66;97035.03;4850529;29;20640;-86
2021/12/29 02:19:27;;;;;;;4.47;1.00;;;;;;;10.45;88.59;97045.31;4848714;29;20734;-86
2021/12/29 02:22:04;;;;;;;4.83;0.90;;;;;;;10.48;88.30;97024.22;4847792;29;20641;-86
2021/12/29 02:24:39;;;;;;;3.73;1.00;;;;;;;10.47;89.75;97045.19;4849232;29;21001;-86
2021/12/29 02:27:08;;;;;;;5.00;1.03;;;;;;;10.43;88.42;97059.44;4847091;29;20644;-86
2021/12/29 02:29:38;;;;;;;5.23;1.00;;;;;;;10.39;89.61;97055.44;4848969;29;20680;-86
2021/12/29 02:32:06;;;;;;;5.40;1.20;;;;;;;10.40;89.08;97057.09;4849818;29;20770;-85
2021/12/29 02:34:35;;;;;;;2.67;1.07;;;;;;;10.38;90.21;97072.03;4835389;29;20658;-86
2021/12/29 02:37:04;;;;;;;2.80;1.00;;;;;;;10.39;90.23;97081.50;4863836;29;20639;-86
2021/12/29 02:39:36;;;;;;;4.13;1.10;;;;;;;10.37;89.74;97079.03;4853313;29;20664;-86
2021/12/29 02:42:07;;;;;;;2.70;0.90;;;;;;;10.40;89.20;97080.53;4831656;29;20623;-86
2021/12/29 02:44:40;;;;;;;3.17;1.10;;;;;;;10.38;89.18;97077.25;4849901;29;20636;-86
2021/12/29 02:47:09;;;;;;;2.43;0.80;;;;;;;10.38;90.14;97092.88;4839788;29;20638;-86
2021/12/29 02:49:37;;;;;;;2.63;0.80;;;;;;;10.36;89.25;97094.81;4854320;29;20740;-86
2021/12/29 02:52:08;;;;;;;3.30;1.10;;;;;;;10.34;89.24;97092.31;4855561;29;20650;-86
2021/12/29 02:54:37;;;;;;;6.70;1.40;;;;;;;10.32;89.07;97106.41;4869903;29;20645;-86
2021/12/29 02:57:05;;;;;;;3.03;1.23;;;;;;;10.35;89.60;97103.56;4863403;29;20984;-86
2021/12/29 02:59:34;;;;;;;3.13;1.10;;;;;;;10.37;89.01;97106.84;4848954;29;20641;-86
2021/12/29 03:02:02;;;;;;;6.23;1.53;;;;;;;10.35;88.97;97108.78;4851507;29;20639;-86
2021/12/29 03:04:30;;;;;;;4.10;1.00;;;;;;;10.35;90.57;97127.03;4852174;29;20662;-86
2021/12/29 03:06:58;;;;;;;6.20;1.20;;;;;;;10.37;89.26;97122.50;4850136;29;20670;-86
2021/12/29 03:09:28;;;;;;;4.90;1.20;;;;;;;10.40;89.35;97137.88;4865766;29;21198;-86
2021/12/29 03:11:57;;;;;;;4.23;1.20;;;;;;;10.39;89.88;97142.28;4837912;29;20674;-85
2021/12/29 03:14:25;;;;;;;2.90;1.00;;;;;;;10.40;89.52;97148.31;4866546;29;20633;-85
2021/12/29 03:16:53;;;;;;;1.80;1.03;;;;;;;10.41;88.88;97156.00;4838897;29;20638;-86
2021/12/29 03:19:21;;;;;;;4.13;1.10;;;;;;;10.43;88.92;97156.72;4854943;29;20670;-86
2021/12/29 03:21:50;;;;;;;2.37;0.80;;;;;;;10.44;90.40;97144.50;4851691;29;21202;-86
2021/12/29 03:24:20;;;;;;;4.00;1.40;;;;;;;10.43;89.34;97135.88;4855621;29;21265;-85
2021/12/29 03:26:50;;;;;;;3.03;1.00;;;;;;;10.40;90.27;97138.72;4857326;29;20660;-86
2021/12/29 03:29:18;;;;;;;3.27;1.30;;;;;;;10.39;90.40;97133.63;4856079;29;21080;-86
2021/12/29 03:31:47;;;;;;;2.87;1.00;;;;;;;10.42;90.33;97138.59;4858373;29;20725;-86
2021/12/29 03:34:16;;;;;;;4.40;1.10;;;;;;;10.45;89.29;97151.38;4860292;29;20636;-86
2021/12/29 03:36:44;;;;;;;3.20;0.90;;;;;;;10.43;89.37;97150.66;4862662;29;20621;-86
2021/12/29 03:39:13;;;;;;;5.60;1.00;;;;;;;10.46;90.03;97164.28;4831295;29;20652;-86
2021/12/29 03:41:41;;;;;;;4.10;1.00;;;;;;;10.42;90.40;97170.69;4854679;29;20646;-86
2021/12/29 03:44:11;;;;;;;2.03;0.87;;;;;;;10.41;91.14;97176.03;4844325;29;21199;-86
2021/12/29 03:46:40;;;;;;;3.50;0.90;;;;;;;10.39;90.86;97178.75;4854365;29;20644;-86
2021/12/29 03:49:08;;;;;;;3.70;1.17;;;;;;;10.35;90.32;97161.72;4859613;29;20736;-86
2021/12/29 03:51:36;;;;;;;1.90;0.90;;;;;;;10.35;91.01;97173.94;4857225;29;20646;-86
2021/12/29 03:54:05;;;;;;;6.20;1.20;;;;;;;10.34;91.35;97161.84;4830813;29;21038;-86
2021/12/29 03:56:33;;;;;;;3.23;1.23;;;;;;;10.32;90.51;97176.78;4855815;29;20739;-86
2021/12/29 03:59:01;;;;;;;2.97;1.00;;;;;;;10.29;91.97;97171.00;4842722;29;20645;-86
2021/12/29 04:01:31;;;;;;;4.00;1.13;;;;;;;10.27;91.84;97173.72;4855330;29;20643;-86
2021/12/29 04:03:59;;;;;;;4.07;1.27;;;;;;;10.31;91.32;97180.31;4869069;29;20670;-86
2021/12/29 04:06:27;;;;;;;2.27;0.80;;;;;;;10.27;92.00;97184.16;4854718;29;20662;-86
2021/12/29 04:08:55;;;;;;;2.37;0.97;;;;;;;10.25;91.35;97186.03;4856566;29;20652;-86
2021/12/29 04:11:23;;;;;;;5.23;1.00;;;;;;;10.27;92.17;97181.56;4851020;29;20633;-86
2021/12/29 04:13:52;;;;;;;1.33;0.77;;;;;;;10.30;91.42;97204.75;4844368;29;20762;-86
2021/12/29 04:16:20;;;;;;;2.40;1.30;;;;;;;10.29;91.02;97202.28;4867724;29;20950;-86
2021/12/29 04:19:14;;;;;;;2.07;0.90;;;;;;;10.27;92.35;97209.38;4845460;29;21205;-86
2021/12/29 04:21:44;;;;;;;3.37;1.00;;;;;;;10.24;92.55;97215.69;4850800;29;20638;-86
2021/12/29 04:24:12;;;;;;;6.67;1.10;;;;;;;10.30;90.95;97217.78;4847033;29;21649;-86
2021/12/29 04:26:41;;;;;;;2.83;0.83;;;;;;;10.32;92.22;97215.06;4850859;29;20731;-86
2021/12/29 04:29:10;;;;;;;3.10;1.00;;;;;;;10.31;91.69;97222.03;4847816;29;20660;-86
2021/12/29 04:31:39;;;;;;;2.23;0.80;;;;;;;10.33;92.17;97220.16;4865302;29;20644;-86
2021/12/29 04:34:08;;;;;;;4.30;1.33;;;;;;;10.33;91.36;97220.16;4849807;29;20674;-86
2021/12/29 04:36:36;;;;;;;2.90;0.90;;;;;;;10.35;91.11;97233.88;4851201;29;20636;-86
2021/12/29 04:39:06;;;;;;;3.30;1.00;;;;;;;10.39;90.95;97236.09;4843198;29;21239;-85
2021/12/29 04:41:34;;;;;;;3.07;1.00;;;;;;;10.41;91.28;97235.97;4867132;29;20650;-85
2021/12/29 04:44:02;;;;;;;3.67;1.00;;;;;;;10.43;91.62;97242.72;4847687;29;20622;-86
2021/12/29 04:46:37;;;;;;;2.40;0.90;;;;;;;10.48;91.63;97242.34;4857419;29;20637;-86
2021/12/29 04:49:11;;;;;;;3.40;1.00;;;;;;;10.50;89.93;97249.09;4837127;29;20653;-86
2021/12/29 04:51:47;;;;;;;4.63;1.03;;;;;;;10.48;90.99;97253.59;4843185;29;21218;-86
2021/12/29 04:54:15;;;;;;;1.87;0.80;;;;;;;10.50;91.22;97266.50;4852914;29;20656;-86
2021/12/29 04:56:44;;;;;;;4.40;1.00;;;;;;;10.53;91.02;97264.47;4854270;29;20622;-86
2021/12/29 04:59:12;;;;;;;2.00;1.03;;;;;;;10.51;91.11;97265.56;4829382;29;20728;-86
2021/12/29 05:01:40;;;;;;;2.93;1.10;;;;;;;10.53;91.04;97269.69;4857852;29;20638;-86
2021/12/29 05:04:12;;;;;;;2.77;1.17;;;;;;;10.51;90.00;97270.78;4852094;29;21151;-86
2021/12/29 05:09:26;;;;;;;2.90;0.80;;;;;;;10.49;89.40;97272.66;4846276;29;20638;-86
2021/12/29 05:11:54;;;;;;;4.50;0.80;;;;;;;10.49;89.24;97280.50;4847480;29;21224;-86
2021/12/29 05:14:22;;;;;;;4.60;0.87;;;;;;;10.51;90.23;97286.44;4853058;29;20676;-86
2021/12/29 05:16:50;;;;;;;2.33;0.70;;;;;;;10.51;90.16;97276.00;4848030;29;20626;-86
2021/12/29 05:19:19;;;;;;;1.33;0.50;;;;;;;10.55;89.46;97283.41;4850917;29;20637;-85
2021/12/29 05:21:48;;;;;;;1.90;0.90;;;;;;;10.51;89.76;97276.00;4850846;29;20721;-85
2021/12/29 05:24:16;;;;;;;2.07;0.83;;;;;;;10.49;89.88;97280.50;4850796;29;20630;-86
2021/12/29 05:26:45;;;;;;;3.27;0.80;;;;;;;10.47;89.62;97285.81;4847713;29;20641;-86
2021/12/29 05:29:14;;;;;;;1.40;0.40;;;;;;;10.48;90.25;97289.28;4853915;29;20738;-86
2021/12/29 05:31:42;;;;;;;0.93;0.40;;;;;;;10.45;89.57;97287.75;4865255;29;20632;-86
2021/12/29 05:34:10;;;;;;;2.40;0.57;;;;;;;10.48;89.21;97292.72;4868680;29;21228;-86
2021/12/29 05:36:40;;;;;;;1.30;0.53;;;;;;;10.46;89.69;97293.78;4848672;29;20651;-88
2021/12/29 05:39:08;;;;;;;1.53;0.47;;;;;;;10.48;88.97;97297.09;4832668;29;20635;-86
2021/12/29 05:41:36;;;;;;;1.83;0.60;;;;;;;10.48;90.13;97308.34;4852004;29;20660;-86
2021/12/29 05:44:05;;;;;;;1.27;0.60;;;;;;;10.47;90.47;97311.06;4858152;29;20636;-86
2021/12/29 05:46:33;;;;;;;1.80;0.70;;;;;;;10.45;88.90;97305.97;4856053;29;21049;-86
2021/12/29 05:49:02;;;;;;;1.73;0.80;;;;;;;10.42;90.13;97302.81;4856095;29;20653;-86
2021/12/29 05:51:30;;;;;;;1.40;0.77;;;;;;;10.43;89.03;97310.50;4833072;29;20664;-86
2021/12/29 05:53:59;;;;;;;3.20;0.70;;;;;;;10.42;89.24;97315.84;4851587;29;20679;-86
2021/12/29 05:56:27;;;;;;;2.30;0.73;;;;;;;10.42;89.49;97313.22;4849855;29;20646;-85
2021/12/29 05:58:59;;;;;;;5.93;0.80;;;;;;;10.44;90.31;97327.78;4848467;29;20998;-86
2021/12/29 06:01:28;;;;;;;2.43;1.00;;;;;;;10.39;90.26;97334.31;4862611;29;20649;-86
2021/12/29 06:03:57;;;;;;;1.30;0.60;;;;;;;10.40;91.25;97326.38;4849453;29;20638;-86
2021/12/29 06:06:25;;;;;;;1.47;0.70;;;;;;;10.36;90.40;97334.56;4847792;29;20656;-86
2021/12/29 06:08:53;;;;;;;1.77;0.90;;;;;;;10.34;91.82;97332.09;4848628;29;20738;-86
2021/12/29 06:11:22;;;;;;;1.60;0.73;;;;;;;10.32;92.23;97341.78;4852372;29;20639;-86
2021/12/29 06:13:50;;;;;;;1.53;0.50;;;;;;;10.29;91.16;97349.03;4850020;29;20664;-86
2021/12/29 06:16:19;;;;;;;1.47;0.53;;;;;;;10.32;91.93;97351.38;4861377;29;20630;-86
2021/12/29 06:18:47;;;;;;;1.70;0.60;;;;;;;10.28;92.72;97349.97;4845005;29;20679;-86
2021/12/29 06:21:17;;;;;;;2.07;0.60;;;;;;;10.24;93.46;97353.78;4852522;29;21047;-86
2021/12/29 06:23:45;;;;;;;4.17;0.70;;;;;;;10.16;93.89;97342.28;4857753;29;20726;-86
2021/12/29 06:26:14;;;;;;;3.10;0.97;;;;;;;10.18;93.77;97350.81;4853726;29;20643;-85
2021/12/29 06:28:44;;;;;;;4.50;1.57;;;;;;;10.17;94.77;97350.00;4844158;29;20669;-86
2021/12/29 06:31:12;;;;;;;2.33;0.90;;;;;;;10.14;94.39;97360.66;4845652;29;20639;-86
2021/12/29 06:33:40;;;;;;;3.40;0.90;;;;;;;10.15;95.14;97357.09;4864603;29;20653;-86
2021/12/29 06:36:08;;;;;;;1.63;0.63;;;;;;;10.16;94.96;97363.94;4850865;29;20642;-86
2021/12/29 06:38:36;;;;;;;2.60;1.00;;;;;;;10.17;95.75;97359.59;4850653;29;20631;-86
2021/12/29 06:41:04;;;;;;;1.97;0.60;;;;;;;10.15;96.83;97366.69;4849547;29;20621;-86
2021/12/29 06:43:33;;;;;;;8.60;0.97;;;;;;;10.11;97.87;97367.88;4848824;29;20666;-86
2021/12/29 06:46:02;;;;;;;3.40;1.00;;;;;;;10.06;97.84;97363.03;4836085;29;21229;-86
2021/12/29 06:48:30;;;;;;;2.40;0.77;;;;;;;10.09;98.02;97370.59;4854450;29;20662;-87
2021/12/29 06:50:58;;;;;;;1.93;0.90;;;;;;;10.10;98.42;97371.44;4855840;29;20647;-86
2021/12/29 06:53:29;;;;;;;6.03;1.10;;;;;;;9.97;99.11;97378.56;4853440;29;21202;-87
2021/12/29 06:55:57;;;;;;;1.93;0.60;;;;;;;9.98;99.73;97383.66;4869144;29;21219;-86
2021/12/29 06:58:26;;;;;;;2.00;0.70;;;;;;;9.94;99.86;97384.00;4851694;29;20648;-86
2021/12/29 07:00:54;;;;;;;1.40;0.50;;;;;;;9.91;100.00;97405.03;4856868;29;21048;-86
2021/12/29 07:03:25;;;;;;;1.10;0.50;;;;;;;9.88;100.00;97408.69;4856837;29;20660;-86
2021/12/29 07:05:54;;;;;;;1.83;0.60;;;;;;;9.89;100.00;97412.13;4859142;29;20701;-87
2021/12/29 07:08:22;;;;;;;1.60;0.87;;;;;;;9.90;100.00;97417.22;4859926;29;20648;-87
2021/12/29 07:10:51;;;;;;;2.87;1.10;;;;;;;9.92;100.00;97433.56;4860106;29;20630;-87
2021/12/29 07:13:19;;;;;;;1.97;0.90;;;;;;;9.86;100.00;97415.81;4849165;29;21344;-86
2021/12/29 07:15:47;;;;;;;1.90;1.13;;;;;;;9.88;100.00;97432.13;4851536;29;20673;-87
2021/12/29 07:18:16;;;;;;;6.30;1.13;;;;;;;9.90;100.00;97443.25;4857944;29;21173;-86
2021/12/29 07:20:45;;;;;;;5.53;1.17;;;;;;;9.94;100.00;97451.72;4841826;29;20646;-87
2021/12/29 07:23:13;;;;;;;3.47;1.00;;;;;;;9.97;100.00;97457.50;4862060;29;21118;-86
2021/12/29 07:25:42;;;;;;;2.50;1.10;;;;;;;9.99;100.00;97457.41;4846861;29;21041;-87
2021/12/29 07:28:10;;;;;;;2.97;1.33;;;;;;;10.03;100.00;97470.06;4855327;29;20626;-86
2021/12/29 07:30:38;;;;;;;3.10;1.43;;;;;;;10.06;100.00;97469.84;4855039;29;21087;-87
2021/12/29 07:33:06;;;;;;;3.17;1.30;;;;;;;10.07;100.00;97466.31;4859674;29;20663;-86
2021/12/29 07:35:34;;;;;;;2.60;1.60;;;;;;;10.10;100.00;97460.84;4842365;29;20669;-86
2021/12/29 07:38:04;;;;;;;4.33;2.07;;;;;;;10.14;100.00;97470.06;4855527;29;21190;-86
2021/12/29 07:40:34;;;;;;;3.30;1.70;;;;;;;10.17;100.00;97472.44;4837361;29;20657;-87
2021/12/29 07:43:03;;;;;;;5.60;1.90;;;;;;;10.18;100.00;97463.69;4857813;29;21195;-86
2021/12/29 07:45:33;;;;;;;3.40;1.67;;;;;;;10.17;99.68;97463.81;4861918;29;21249;-86
2021/12/29 07:48:04;;;;;;;4.00;1.80;;;;;;;10.18;100.00;97466.31;4846789;29;20695;-86
2021/12/29 07:50:32;;;;;;;4.97;3.13;;;;;;;10.11;99.39;97470.31;4853250;29;21292;-86
2021/12/29 07:53:01;;;;;;;4.33;2.47;;;;;;;10.03;99.73;97466.66;4851956;29;20688;-86
2021/12/29 07:55:30;;;;;;;6.33;2.20;;;;;;;9.98;100.00;97481.78;4837141;29;21122;-86
2021/12/29 07:57:59;;;;;;;7.50;2.43;;;;;;;9.90;100.00;97477.09;4866661;29;20997;-86
2021/12/29 08:00:28;;;;;;;2.23;1.17;;;;;;;9.92;100.00;97475.25;4836114;29;21069;-85
2021/12/29 08:02:56;;;;;;;4.30;1.30;;;;;;;9.93;99.94;97470.84;4852864;29;21181;-86
2021/12/29 08:05:24;;;;;;;4.17;1.70;;;;;;;9.93;99.36;97471.69;4833482;29;20691;-86
2021/12/29 08:07:52;;;;;;;6.63;1.70;;;;;;;9.97;100.00;97467.94;4851043;29;20617;-86
2021/12/29 08:10:20;;;;;;;4.03;1.40;;;;;;;10.00;99.54;97474.69;4849880;29;20641;-86
2021/12/29 08:12:50;;;;;;;5.07;1.33;;;;;;;9.99;99.51;97470.41;4849817;29;20668;-86
2021/12/29 08:15:18;;;;;;;3.50;1.30;;;;;;;9.99;99.41;97476.44;4848028;29;20776;-86
2021/12/29 08:17:50;;;;;;;5.60;1.50;;;;;;;10.01;100.00;97477.19;4852100;29;20646;-86
2021/12/29 08:20:18;;;;;;;4.50;1.50;;;;;;;10.05;99.30;97481.19;4846030;29;21024;-86
2021/12/29 08:22:47;;;;;;;5.70;2.00;;;;;;;10.07;98.99;97486.28;4854956;29;20669;-86
2021/12/29 08:25:15;;;;;;;4.13;1.60;;;;;;;10.11;99.35;97487.72;4854976;29;20637;-87
2021/12/29 08:27:43;;;;;;;5.03;1.70;;;;;;;10.09;97.82;97498.25;4864724;29;21251;-86
2021/12/29 08:30:13;;;;;;;2.60;1.27;;;;;;;10.09;97.91;97505.25;4858172;29;20659;-86
2021/12/29 08:32:42;;;;;;;3.00;1.80;;;;;;;10.10;97.71;97506.91;4841397;29;20638;-86
2021/12/29 08:35:10;;;;;;;3.17;1.87;;;;;;;10.10;98.01;97506.91;4857914;29;20983;-86
2021/12/29 08:37:39;;;;;;;5.83;1.43;;;;;;;10.13;97.27;97511.88;4841967;29;20669;-86
2021/12/29 08:40:09;;;;;;;6.80;1.50;;;;;;;10.17;97.85;97514.13;4852696;29;20647;-86
2021/12/29 08:42:38;;;;;;;3.17;1.30;;;;;;;10.18;96.91;97517.56;4849642;29;20733;-86
2021/12/29 08:45:10;;;;;;;2.00;1.07;;;;;;;10.19;96.64;97503.59;4848592;29;21183;-86
2021/12/29 08:47:40;;;;;;;4.27;2.03;;;;;;;10.23;95.90;97512.84;4862943;29;20668;-85
2021/12/29 08:50:10;;;;;;;4.60;1.50;;;;;;;10.21;96.61;97505.16;4862938;29;21025;-86
2021/12/29 08:52:39;;;;;;;3.00;1.00;;;;;;;10.22;96.22;97506.78;4833980;29;21221;-86
2021/12/29 08:55:11;;;;;;;2.90;1.57;;;;;;;10.24;96.59;97499.72;4853491;29;21040;-86
2021/12/29 08:57:39;;;;;;;2.47;1.37;;;;;;;10.27;97.30;97507.28;4848859;29;20750;-86
2021/12/29 09:00:11;;;;;;;3.60;1.30;;;;;;;10.30;96.55;97504.44;4850835;29;20651;-86
2021/12/29 09:02:40;;;;;;;3.10;1.40;;;;;;;10.33;95.44;97506.81;4849109;29;20635;-86
2021/12/29 09:05:10;;;;;;;4.67;1.30;;;;;;;10.37;96.32;97508.22;4851832;29;21001;-86
2021/12/29 09:07:38;;;;;;;2.37;1.00;;;;;;;10.44;95.69;97515.47;4850123;29;20734;-86
2021/12/29 09:10:10;;;;;;;3.23;1.30;;;;;;;10.48;95.62;97518.69;4859441;29;20614;-86
2021/12/29 09:12:38;;;;;;;3.77;1.30;;;;;;;10.55;95.18;97519.84;4857084;29;20649;-86
2021/12/29 09:15:08;;;;;;;3.23;1.57;;;;;;;10.53;95.32;97501.72;4842114;29;20764;-87
2021/12/29 09:17:36;;;;;;;3.60;1.00;;;;;;;10.50;94.72;97515.00;4847739;29;20649;-86
2021/12/29 09:20:13;;;;;;;4.37;1.20;;;;;;;10.53;95.22;97519.16;4848583;29;20643;-86
2021/12/29 09:22:42;;;;;;;5.17;1.70;;;;;;;10.56;95.26;97521.53;4867213;29;20671;-87
2021/12/29 09:25:10;;;;;;;2.10;0.90;;;;;;;10.55;94.80;97525.06;4853400;29;20642;-87
2021/12/29 09:27:39;;;;;;;2.53;1.00;;;;;;;10.62;94.02;97531.47;4849916;29;20692;-87
2021/12/29 09:30:08;;;;;;;4.63;1.10;;;;;;;10.66;94.19;97531.13;4849555;29;20638;-86
2021/12/29 09:32:36;;;;;;;5.07;1.30;;;;;;;10.69;93.44;97533.50;4863168;29;20751;-86
2021/12/29 09:35:06;;;;;;;3.10;1.20;;;;;;;10.73;93.28;97541.91;4846710;29;20648;-86
2021/12/29 09:37:34;;;;;;;4.00;1.57;;;;;;;10.66;93.68;97532.88;4851863;29;20643;-86
2021/12/29 09:40:03;;;;;;;2.90;1.30;;;;;;;10.70;94.22;97542.13;4854205;29;20681;-85
2021/12/29 09:42:31;;;;;;;4.13;1.10;;;;;;;10.77;93.49;97540.72;4853154;29;20645;-86
2021/12/29 09:45:00;;;;;;;4.37;1.50;;;;;;;10.76;92.79;97547.69;4852089;29;20643;-86
2021/12/29 09:47:28;;;;;;;2.83;1.10;;;;;;;10.79;93.34;97531.81;4847643;29;21050;-86
2021/12/29 09:49:57;;;;;;;3.43;1.20;;;;;;;10.80;92.04;97539.50;4854975;29;20649;-87
2021/12/29 09:52:29;;;;;;;3.30;1.30;;;;;;;10.85;92.49;97537.41;4859794;29;20664;-86
2021/12/29 09:54:59;;;;;;;3.53;1.30;;;;;;;10.90;92.60;97540.47;4864241;29;20660;-87
2021/12/29 09:57:32;;;;;;;4.97;1.80;;;;;;;10.93;92.48;97547.19;4854736;29;20724;-86
2021/12/29 10:00:08;;;;;;;4.43;1.70;;;;;;;10.94;93.54;97547.09;4857751;29;20650;-86
2021/12/29 10:02:36;;;;;;;3.77;1.50;;;;;;;10.95;92.10;97553.97;4856673;29;20638;-87
2021/12/29 10:05:05;;;;;;;4.67;1.57;;;;;;;10.97;92.95;97557.28;4848426;29;20637;-86
2021/12/29 10:07:36;;;;;;;2.93;1.40;;;;;;;10.98;93.05;97553.72;4862208;29;20669;-86
2021/12/29 10:10:16;;;;;;;2.47;1.20;;;;;;;10.95;92.86;97553.16;4843804;29;20699;-86
2021/12/29 10:12:45;;;;;;;3.40;1.23;;;;;;;10.98;92.41;97553.72;4832468;29;20641;-86
2021/12/29 10:15:14;;;;;;;5.97;1.30;;;;;;;11.00;93.05;97559.66;4841971;29;21339;-86
2021/12/29 10:17:42;;;;;;;2.30;1.40;;;;;;;10.99;93.16;97562.38;4834910;29;21202;-86
2021/12/29 10:20:12;;;;;;;4.27;1.43;;;;;;;11.03;92.50;97561.19;4853368;29;20632;-86
2021/12/29 10:22:43;;;;;;;4.20;1.30;;;;;;;11.08;93.86;97559.03;4850542;29;20747;-86
2021/12/29 10:25:13;;;;;;;3.07;1.50;;;;;;;11.13;92.74;97552.53;4848215;29;21214;-86
2021/12/29 10:27:42;;;;;;;3.30;1.40;;;;;;;11.18;93.46;97555.59;4854585;29;21038;-86
2021/12/29 10:30:22;;;;;;;3.70;1.23;;;;;;;11.21;93.59;97546.69;4852392;29;20656;-86
2021/12/29 10:32:50;;;;;;;2.07;1.30;;;;;;;11.25;92.51;97551.56;4851236;29;20671;-86
2021/12/29 10:35:23;;;;;;;2.50;1.33;;;;;;;11.25;92.05;97542.91;4852114;29;20641;-86
2021/12/29 10:37:55;;;;;;;4.60;1.53;;;;;;;11.31;93.51;97545.84;4852465;29;20649;-86
2021/12/29 10:40:28;;;;;;;3.27;1.70;;;;;;;11.38;93.41;97541.78;4847787;29;21071;-87
2021/12/29 10:42:58;;;;;;;3.70;1.27;;;;;;;11.33;92.82;97543.94;4852556;29;20633;-86
2021/12/29 10:45:31;;;;;;;7.17;1.43;;;;;;;11.34;93.49;97537.78;4856441;29;20641;-86
2021/12/29 10:47:59;;;;;;;3.20;1.90;;;;;;;11.33;92.22;97538.72;4844209;29;20767;-86
2021/12/29 10:50:28;;;;;;;3.20;1.83;;;;;;;11.39;93.53;97541.66;4846952;29;20733;-86
2021/12/29 10:52:58;;;;;;;4.10;1.60;;;;;;;11.41;92.49;97551.97;4848406;29;20733;-86
2021/12/29 10:55:32;;;;;;;4.40;1.77;;;;;;;11.40;93.15;97545.94;4849804;29;20670;-87
2021/12/29 10:58:05;;;;;;;3.77;1.67;;;;;;;11.41;92.88;97549.38;4846238;29;20678;-86
2021/12/29 11:00:50;;;;;;;3.80;2.00;;;;;;;11.43;91.63;97553.53;4829203;29;20641;-86
2021/12/29 11:03:20;;;;;;;5.40;1.37;;;;;;;11.46;91.62;97544.63;4836756;29;20636;-87
2021/12/29 11:05:58;;;;;;;6.00;1.50;;;;;;;11.45;91.44;97543.78;4848856;29;20659;-86
2021/12/29 11:08:30;;;;;;;3.27;1.53;;;;;;;11.45;93.08;97543.78;4847014;29;20620;-86
2021/12/29 11:11:03;;;;;;;4.47;1.83;;;;;;;11.43;93.70;97545.69;4846580;29;21184;-86
2021/12/29 11:13:32;;;;;;;4.10;1.83;;;;;;;11.48;91.98;97553.19;4848398;29;20650;-86
2021/12/29 11:16:03;;;;;;;4.33;1.93;;;;;;;11.50;92.25;97541.69;4855824;29;21056;-86
2021/12/29 11:18:44;;;;;;;4.50;1.73;;;;;;;11.46;92.03;97552.47;4866116;29;21193;-86
2021/12/29 11:21:12;;;;;;;3.33;1.80;;;;;;;11.49;93.58;97550.44;4868777;29;20644;-87
2021/12/29 11:23:42;;;;;;;6.97;2.73;;;;;;;11.52;93.65;97544.97;4856683;29;21197;-86
2021/12/29 11:26:12;;;;;;;4.23;2.70;;;;;;;11.46;92.86;97547.22;4852337;29;20629;-86
2021/12/29 11:28:40;;;;;;;4.13;2.00;;;;;;;11.44;92.97;97536.06;4851019;29;20745;-87
2021/12/29 11:31:11;;;;;;;3.27;1.77;;;;;;;11.44;91.71;97531.69;4849386;29;20626;-87
2021/12/29 11:33:39;;;;;;;3.80;1.70;;;;;;;11.44;91.42;97530.84;4848456;29;20740;-86
2021/12/29 11:36:08;;;;;;;3.83;1.80;;;;;;;11.47;93.19;97533.25;4847764;29;21220;-86
2021/12/29 11:38:36;;;;;;;3.90;1.83;;;;;;;11.48;92.73;97537.53;4868477;29;20646;-86
2021/12/29 11:41:06;;;;;;;4.70;1.70;;;;;;;11.40;91.63;97534.66;4851823;29;20733;-86
2021/12/29 11:43:34;;;;;;;4.20;2.20;;;;;;;11.30;92.58;97537.16;4839752;29;20670;-86
2021/12/29 11:46:02;;;;;;;4.80;1.90;;;;;;;11.26;92.98;97528.88;4849907;29;20668;-86
2021/12/29 11:48:31;;;;;;;3.67;2.13;;;;;;;11.23;94.01;97527.38;4850655;29;20703;-87